sensor_id;sensor_type;location;lat;lon;timestamp;temperature;humidity
22676;DHT22;12521;43.310;21.876;2023-07-13T00:04:08;25.4;96.0
22676;DHT22;12521;43.310;21.876;2023-07-13T00:08:45;25.4;96.0
22676;DHT22;12521;43.310;21.876;2023-07-13T00:13:22;25.4;96.0
22676;DHT22;12521;43.310;21.876;2023-07-13T00:17:59;25.3;96.0
22676;DHT22;12521;43.310;21.876;2023-07-13T00:22:35;25.3;96.0
22676;DHT22;12521;43.310;21.876;2023-07-13T00:27:14;25.2;96.0
22676;DHT22;12521;43.310;21.876;2023-07-13T00:31:50;25.2;96.0
22676;DHT22;12521;43.310;21.876;2023-07-13T00:36:27;25.0;96.0
22676;DHT22;12521;43.310;21.876;2023-07-13T00:41:04;25.0;96.0
22676;DHT22;12521;43.310;21.876;2023-07-13T00:46:46;24.9;96.0
22676;DHT22;12521;43.310;21.876;2023-07-13T00:51:31;24.9;96.0
22676;DHT22;12521;43.310;21.876;2023-07-13T00:56:18;24.8;96.0
22676;DHT22;12521;43.310;21.876;2023-07-13T01:00:56;24.8;96.0
22676;DHT22;12521;43.310;21.876;2023-07-13T01:05:35;24.6;96.0
22676;DHT22;12521;43.310;21.876;2023-07-13T01:10:14;24.6;96.0
22676;DHT22;12521;43.310;21.876;2023-07-13T01:14:59;24.3;96.0
22676;DHT22;12521;43.310;21.876;2023-07-13T01:20:12;24.3;96.0
22676;DHT22;12521;43.310;21.876;2023-07-13T01:24:49;24.1;96.0
22676;DHT22;12521;43.310;21.876;2023-07-13T01:29:27;24.1;96.0
22676;DHT22;12521;43.310;21.876;2023-07-13T01:34:04;23.9;96.0
22676;DHT22;12521;43.310;21.876;2023-07-13T01:38:41;23.9;96.0
22676;DHT22;12521;43.310;21.876;2023-07-13T01:43:19;23.9;96.0
22676;DHT22;12521;43.310;21.876;2023-07-13T01:47:56;23.7;96.0
22676;DHT22;12521;43.310;21.876;2023-07-13T01:52:34;23.7;96.0
22676;DHT22;12521;43.310;21.876;2023-07-13T01:57:10;23.5;96.0
22676;DHT22;12521;43.310;21.876;2023-07-13T02:01:47;23.5;96.0
22676;DHT22;12521;43.310;21.876;2023-07-13T02:06:24;23.4;96.0
22676;DHT22;12521;43.310;21.876;2023-07-13T02:11:03;23.4;96.0
22676;DHT22;12521;43.310;21.876;2023-07-13T02:15:39;23.3;96.0
22676;DHT22;12521;43.310;21.876;2023-07-13T02:20:15;23.3;96.0
22676;DHT22;12521;43.310;21.876;2023-07-13T02:24:52;23.2;96.0
22676;DHT22;12521;43.310;21.876;2023-07-13T02:29:29;23.2;96.0
22676;DHT22;12521;43.310;21.876;2023-07-13T02:34:06;23.2;96.0
22676;DHT22;12521;43.310;21.876;2023-07-13T02:38:43;23.2;96.0
22676;DHT22;12521;43.310;21.876;2023-07-13T02:43:20;23.2;96.0
22676;DHT22;12521;43.310;21.876;2023-07-13T02:47:57;23.2;96.0
22676;DHT22;12521;43.310;21.876;2023-07-13T02:52:34;23.2;96.0
22676;DHT22;12521;43.310;21.876;2023-07-13T02:57:11;23.2;96.0
22676;DHT22;12521;43.310;21.876;2023-07-13T03:01:48;23.2;96.0
22676;DHT22;12521;43.310;21.876;2023-07-13T03:06:24;23.2;96.0
22676;DHT22;12521;43.310;21.876;2023-07-13T03:11:05;23.2;96.0
22676;DHT22;12521;43.310;21.876;2023-07-13T03:15:48;23.1;96.0
22676;DHT22;12521;43.310;21.876;2023-07-13T03:20:25;23.1;96.0
22676;DHT22;12521;43.310;21.876;2023-07-13T03:25:01;23.0;96.0
22676;DHT22;12521;43.310;21.876;2023-07-13T03:29:37;23.0;96.0
22676;DHT22;12521;43.310;21.876;2023-07-13T03:34:13;23.0;96.0
22676;DHT22;12521;43.310;21.876;2023-07-13T03:38:52;23.0;96.0
22676;DHT22;12521;43.310;21.876;2023-07-13T03:43:36;23.0;96.0
22676;DHT22;12521;43.310;21.876;2023-07-13T03:48:14;23.0;96.0
22676;DHT22;12521;43.310;21.876;2023-07-13T03:52:51;23.0;96.0
22676;DHT22;12521;43.310;21.876;2023-07-13T03:57:28;23.0;96.0
22676;DHT22;12521;43.310;21.876;2023-07-13T04:02:05;23.0;96.0
22676;DHT22;12521;43.310;21.876;2023-07-13T04:06:43;23.0;96.0
22676;DHT22;12521;43.310;21.876;2023-07-13T04:11:26;23.0;96.0
22676;DHT22;12521;43.310;21.876;2023-07-13T04:16:08;22.9;96.0
22676;DHT22;12521;43.310;21.876;2023-07-13T04:20:46;22.9;96.0
22676;DHT22;12521;43.310;21.876;2023-07-13T04:25:27;22.9;96.0
22676;DHT22;12521;43.310;21.876;2023-07-13T04:30:07;22.9;96.0
22676;DHT22;12521;43.310;21.876;2023-07-13T04:34:46;22.9;96.0
22676;DHT22;12521;43.310;21.876;2023-07-13T04:39:23;22.9;96.0
22676;DHT22;12521;43.310;21.876;2023-07-13T04:43:59;23.1;96.0
22676;DHT22;12521;43.310;21.876;2023-07-13T04:48:36;23.1;96.0
22676;DHT22;12521;43.310;21.876;2023-07-13T04:53:15;23.1;96.0
22676;DHT22;12521;43.310;21.876;2023-07-13T04:57:51;23.3;96.0
22676;DHT22;12521;43.310;21.876;2023-07-13T05:02:27;23.3;96.0
22676;DHT22;12521;43.310;21.876;2023-07-13T05:07:05;23.6;96.0
22676;DHT22;12521;43.310;21.876;2023-07-13T05:11:43;23.6;96.0
22676;DHT22;12521;43.310;21.876;2023-07-13T05:16:20;23.8;96.0
22676;DHT22;12521;43.310;21.876;2023-07-13T05:21:00;23.8;96.0
22676;DHT22;12521;43.310;21.876;2023-07-13T05:25:42;24.2;96.0
22676;DHT22;12521;43.310;21.876;2023-07-13T05:30:18;24.2;96.0
22676;DHT22;12521;43.310;21.876;2023-07-13T05:34:55;24.5;96.0
22676;DHT22;12521;43.310;21.876;2023-07-13T05:39:31;24.5;96.0
22676;DHT22;12521;43.310;21.876;2023-07-13T05:44:08;24.7;96.0
22676;DHT22;12521;43.310;21.876;2023-07-13T05:48:45;24.7;96.0
22676;DHT22;12521;43.310;21.876;2023-07-13T05:53:22;24.7;96.0
22676;DHT22;12521;43.310;21.876;2023-07-13T05:57:59;24.9;96.0
22676;DHT22;12521;43.310;21.876;2023-07-13T06:02:38;24.9;96.0
22676;DHT22;12521;43.310;21.876;2023-07-13T06:07:14;25.0;96.0
22676;DHT22;12521;43.310;21.876;2023-07-13T06:11:51;25.0;96.0
22676;DHT22;12521;43.310;21.876;2023-07-13T06:16:27;25.2;96.0
22676;DHT22;12521;43.310;21.876;2023-07-13T06:21:08;25.2;96.0
22676;DHT22;12521;43.310;21.876;2023-07-13T06:25:58;25.4;96.0
22676;DHT22;12521;43.310;21.876;2023-07-13T06:30:38;25.4;96.0
22676;DHT22;12521;43.310;21.876;2023-07-13T06:35:15;25.5;96.0
22676;DHT22;12521;43.310;21.876;2023-07-13T06:39:52;25.5;96.0
22676;DHT22;12521;43.310;21.876;2023-07-13T06:44:29;25.6;96.0
22676;DHT22;12521;43.310;21.876;2023-07-13T06:49:08;25.6;96.0
22676;DHT22;12521;43.310;21.876;2023-07-13T06:53:46;25.6;96.0
22676;DHT22;12521;43.310;21.876;2023-07-13T06:58:23;25.7;96.0
22676;DHT22;12521;43.310;21.876;2023-07-13T07:03:01;25.7;96.0
22676;DHT22;12521;43.310;21.876;2023-07-13T07:07:38;26.0;96.0
22676;DHT22;12521;43.310;21.876;2023-07-13T07:12:15;26.0;96.0
22676;DHT22;12521;43.310;21.876;2023-07-13T07:16:51;26.2;96.0
22676;DHT22;12521;43.310;21.876;2023-07-13T07:21:28;26.2;96.0
22676;DHT22;12521;43.310;21.876;2023-07-13T07:26:05;26.6;96.0
22676;DHT22;12521;43.310;21.876;2023-07-13T07:30:42;26.6;96.0
22676;DHT22;12521;43.310;21.876;2023-07-13T07:35:18;26.9;96.0
22676;DHT22;12521;43.310;21.876;2023-07-13T07:39:55;26.9;96.0
22676;DHT22;12521;43.310;21.876;2023-07-13T07:44:32;27.3;96.0
22676;DHT22;12521;43.310;21.876;2023-07-13T07:49:09;27.3;96.0
22676;DHT22;12521;43.310;21.876;2023-07-13T07:53:47;27.3;96.0
22676;DHT22;12521;43.310;21.876;2023-07-13T07:58:24;27.7;96.0
22676;DHT22;12521;43.310;21.876;2023-07-13T08:03:01;27.7;96.0
22676;DHT22;12521;43.310;21.876;2023-07-13T08:07:40;28.0;96.0
22676;DHT22;12521;43.310;21.876;2023-07-13T08:12:16;28.0;96.0
22676;DHT22;12521;43.310;21.876;2023-07-13T08:16:53;28.4;96.0
22676;DHT22;12521;43.310;21.876;2023-07-13T08:21:29;28.4;96.0
22676;DHT22;12521;43.310;21.876;2023-07-13T08:26:06;28.9;96.0
22676;DHT22;12521;43.310;21.876;2023-07-13T08:30:45;28.9;96.0
22676;DHT22;12521;43.310;21.876;2023-07-13T08:35:22;29.4;96.0
22676;DHT22;12521;43.310;21.876;2023-07-13T08:39:58;29.4;96.0
22676;DHT22;12521;43.310;21.876;2023-07-13T08:44:53;29.9;96.0
22676;DHT22;12521;43.310;21.876;2023-07-13T08:49:47;29.9;96.0
22676;DHT22;12521;43.310;21.876;2023-07-13T08:54:33;30.4;95.0
22676;DHT22;12521;43.310;21.876;2023-07-13T08:59:26;30.4;95.0
22676;DHT22;12521;43.310;21.876;2023-07-13T09:04:19;30.9;94.0
22676;DHT22;12521;43.310;21.876;2023-07-13T09:09:44;30.9;94.0
22676;DHT22;12521;43.310;21.876;2023-07-13T09:15:17;31.4;92.0
22676;DHT22;12521;43.310;21.876;2023-07-13T09:20:26;31.4;92.0
22676;DHT22;12521;43.310;21.876;2023-07-13T09:25:34;31.8;89.0
22676;DHT22;12521;43.310;21.876;2023-07-13T09:30:38;31.8;89.0
22676;DHT22;12521;43.310;21.876;2023-07-13T09:35:41;32.2;87.0
22676;DHT22;12521;43.310;21.876;2023-07-13T09:40:30;32.2;87.0
22676;DHT22;12521;43.310;21.876;2023-07-13T09:45:52;32.6;84.0
22676;DHT22;12521;43.310;21.876;2023-07-13T09:50:29;32.6;84.0
22676;DHT22;12521;43.310;21.876;2023-07-13T09:55:26;33.0;82.0
22676;DHT22;12521;43.310;21.876;2023-07-13T10:00:24;33.0;82.0
22676;DHT22;12521;43.310;21.876;2023-07-13T10:05:14;33.4;81.0
22676;DHT22;12521;43.310;21.876;2023-07-13T10:09:53;33.4;81.0
22676;DHT22;12521;43.310;21.876;2023-07-13T10:14:29;33.8;80.0
22676;DHT22;12521;43.310;21.876;2023-07-13T10:19:18;33.8;80.0
22676;DHT22;12521;43.310;21.876;2023-07-13T10:24:17;33.8;80.0
22676;DHT22;12521;43.310;21.876;2023-07-13T10:29:11;34.2;79.0
22676;DHT22;12521;43.310;21.876;2023-07-13T10:33:55;34.2;79.0
22676;DHT22;12521;43.310;21.876;2023-07-13T10:38:33;34.6;77.0
22676;DHT22;12521;43.310;21.876;2023-07-13T10:43:25;34.6;77.0
22676;DHT22;12521;43.310;21.876;2023-07-13T10:48:19;35.0;76.0
22676;DHT22;12521;43.310;21.876;2023-07-13T10:53:18;35.0;76.0
22676;DHT22;12521;43.310;21.876;2023-07-13T10:58:18;35.3;75.0
22676;DHT22;12521;43.310;21.876;2023-07-13T11:03:17;35.3;75.0
22676;DHT22;12521;43.310;21.876;2023-07-13T11:08:16;35.6;74.0
22676;DHT22;12521;43.310;21.876;2023-07-13T11:13:56;35.6;74.0
22676;DHT22;12521;43.310;21.876;2023-07-13T11:18:36;35.9;72.0
22676;DHT22;12521;43.310;21.876;2023-07-13T11:23:30;35.9;72.0
22676;DHT22;12521;43.310;21.876;2023-07-13T11:28:22;36.2;72.0
22676;DHT22;12521;43.310;21.876;2023-07-13T11:33:17;36.2;72.0
22676;DHT22;12521;43.310;21.876;2023-07-13T11:37:59;36.6;71.0
22676;DHT22;12521;43.310;21.876;2023-07-13T11:42:38;36.6;71.0
22676;DHT22;12521;43.310;21.876;2023-07-13T11:47:20;37.0;71.0
22676;DHT22;12521;43.310;21.876;2023-07-13T11:52:00;37.0;71.0
22676;DHT22;12521;43.310;21.876;2023-07-13T11:56:41;37.3;71.0
22676;DHT22;12521;43.310;21.876;2023-07-13T12:01:25;37.3;71.0
22676;DHT22;12521;43.310;21.876;2023-07-13T12:06:27;37.5;71.0
22676;DHT22;12521;43.310;21.876;2023-07-13T12:11:17;37.5;71.0
22676;DHT22;12521;43.310;21.876;2023-07-13T12:15:57;37.7;71.0
22676;DHT22;12521;43.310;21.876;2023-07-13T12:20:38;37.7;71.0
22676;DHT22;12521;43.310;21.876;2023-07-13T12:25:17;38.0;70.0
22676;DHT22;12521;43.310;21.876;2023-07-13T12:30:26;38.0;70.0
22676;DHT22;12521;43.310;21.876;2023-07-13T12:35:17;38.3;70.0
22676;DHT22;12521;43.310;21.876;2023-07-13T12:39:54;38.3;70.0
22676;DHT22;12521;43.310;21.876;2023-07-13T12:44:32;38.5;69.0
22676;DHT22;12521;43.310;21.876;2023-07-13T12:49:14;38.5;69.0
22676;DHT22;12521;43.310;21.876;2023-07-13T12:54:06;38.5;69.0
22676;DHT22;12521;43.310;21.876;2023-07-13T12:59:02;38.7;69.0
22676;DHT22;12521;43.310;21.876;2023-07-13T13:03:48;38.7;69.0
22676;DHT22;12521;43.310;21.876;2023-07-13T13:08:32;38.9;69.0
22676;DHT22;12521;43.310;21.876;2023-07-13T13:13:12;38.9;69.0
22676;DHT22;12521;43.310;21.876;2023-07-13T13:17:48;39.1;69.0
22676;DHT22;12521;43.310;21.876;2023-07-13T13:22:25;39.1;69.0
22676;DHT22;12521;43.310;21.876;2023-07-13T13:27:02;39.3;68.0
22676;DHT22;12521;43.310;21.876;2023-07-13T13:31:41;39.3;68.0
22676;DHT22;12521;43.310;21.876;2023-07-13T13:36:22;39.5;68.0
22676;DHT22;12521;43.310;21.876;2023-07-13T13:40:59;39.5;68.0
22676;DHT22;12521;43.310;21.876;2023-07-13T13:45:36;39.7;68.0
22676;DHT22;12521;43.310;21.876;2023-07-13T13:50:16;39.7;68.0
22676;DHT22;12521;43.310;21.876;2023-07-13T13:54:58;39.9;68.0
22676;DHT22;12521;43.310;21.876;2023-07-13T13:59:34;39.9;68.0
22676;DHT22;12521;43.310;21.876;2023-07-13T14:04:18;39.9;68.0
22676;DHT22;12521;43.310;21.876;2023-07-13T14:08:58;40.1;67.0
22676;DHT22;12521;43.310;21.876;2023-07-13T14:13:43;40.1;67.0
22676;DHT22;12521;43.310;21.876;2023-07-13T14:18:27;40.3;67.0
22676;DHT22;12521;43.310;21.876;2023-07-13T14:23:04;40.3;67.0
22676;DHT22;12521;43.310;21.876;2023-07-13T14:27:44;40.3;67.0
22676;DHT22;12521;43.310;21.876;2023-07-13T14:32:54;40.3;67.0
22676;DHT22;12521;43.310;21.876;2023-07-13T14:37:31;40.4;67.0
22676;DHT22;12521;43.310;21.876;2023-07-13T14:42:10;40.4;67.0
22676;DHT22;12521;43.310;21.876;2023-07-13T14:46:49;40.4;67.0
22676;DHT22;12521;43.310;21.876;2023-07-13T14:51:30;40.4;67.0
22676;DHT22;12521;43.310;21.876;2023-07-13T14:56:12;40.5;68.0
22676;DHT22;12521;43.310;21.876;2023-07-13T15:00:49;40.5;68.0
22676;DHT22;12521;43.310;21.876;2023-07-13T15:05:30;40.6;68.0
22676;DHT22;12521;43.310;21.876;2023-07-13T15:10:16;40.6;68.0
22676;DHT22;12521;43.310;21.876;2023-07-13T15:15:06;40.7;68.0
22676;DHT22;12521;43.310;21.876;2023-07-13T15:19:44;40.7;68.0
22676;DHT22;12521;43.310;21.876;2023-07-13T15:24:21;40.7;68.0
22676;DHT22;12521;43.310;21.876;2023-07-13T15:28:57;40.6;68.0
22676;DHT22;12521;43.310;21.876;2023-07-13T15:33:34;40.6;68.0
22676;DHT22;12521;43.310;21.876;2023-07-13T15:38:17;40.5;68.0
22676;DHT22;12521;43.310;21.876;2023-07-13T15:43:00;40.5;68.0
22676;DHT22;12521;43.310;21.876;2023-07-13T15:47:36;40.5;68.0
22676;DHT22;12521;43.310;21.876;2023-07-13T15:52:19;40.5;68.0
22676;DHT22;12521;43.310;21.876;2023-07-13T15:57:02;40.5;68.0
22676;DHT22;12521;43.310;21.876;2023-07-13T16:01:45;40.5;68.0
22676;DHT22;12521;43.310;21.876;2023-07-13T16:06:28;40.5;68.0
22676;DHT22;12521;43.310;21.876;2023-07-13T16:11:20;40.5;68.0
22676;DHT22;12521;43.310;21.876;2023-07-13T16:16:09;40.5;68.0
22676;DHT22;12521;43.310;21.876;2023-07-13T16:20:49;40.5;68.0
22676;DHT22;12521;43.310;21.876;2023-07-13T16:25:26;41.0;68.0
22676;DHT22;12521;43.310;21.876;2023-07-13T16:30:14;41.0;68.0
22676;DHT22;12521;43.310;21.876;2023-07-13T16:34:58;41.4;68.0
22676;DHT22;12521;43.310;21.876;2023-07-13T16:39:35;41.4;68.0
22676;DHT22;12521;43.310;21.876;2023-07-13T16:44:15;41.4;68.0
22676;DHT22;12521;43.310;21.876;2023-07-13T16:48:56;41.6;68.0
22676;DHT22;12521;43.310;21.876;2023-07-13T16:53:33;41.6;68.0
22676;DHT22;12521;43.310;21.876;2023-07-13T16:58:10;41.8;68.0
22676;DHT22;12521;43.310;21.876;2023-07-13T17:02:48;41.8;68.0
22676;DHT22;12521;43.310;21.876;2023-07-13T17:07:25;41.0;69.0
22676;DHT22;12521;43.310;21.876;2023-07-13T17:12:05;41.0;69.0
22676;DHT22;12521;43.310;21.876;2023-07-13T17:16:47;40.3;70.0
22676;DHT22;12521;43.310;21.876;2023-07-13T17:21:32;40.3;70.0
22676;DHT22;12521;43.310;21.876;2023-07-13T17:26:09;39.2;72.0
22676;DHT22;12521;43.310;21.876;2023-07-13T17:30:50;39.2;72.0
22676;DHT22;12521;43.310;21.876;2023-07-13T17:35:37;38.1;74.0
22676;DHT22;12521;43.310;21.876;2023-07-13T17:40:16;38.1;74.0
22676;DHT22;12521;43.310;21.876;2023-07-13T17:44:53;36.8;76.0
22676;DHT22;12521;43.310;21.876;2023-07-13T17:49:31;36.8;76.0
22676;DHT22;12521;43.310;21.876;2023-07-13T17:54:13;36.8;76.0
22676;DHT22;12521;43.310;21.876;2023-07-13T17:58:53;35.5;78.0
22676;DHT22;12521;43.310;21.876;2023-07-13T18:03:30;35.5;78.0
22676;DHT22;12521;43.310;21.876;2023-07-13T18:08:24;34.6;79.0
22676;DHT22;12521;43.310;21.876;2023-07-13T18:13:06;34.6;79.0
22676;DHT22;12521;43.310;21.876;2023-07-13T18:17:49;33.8;81.0
22676;DHT22;12521;43.310;21.876;2023-07-13T18:22:27;33.8;81.0
22676;DHT22;12521;43.310;21.876;2023-07-13T18:27:04;33.2;82.0
22676;DHT22;12521;43.310;21.876;2023-07-13T18:31:43;33.2;82.0
22676;DHT22;12521;43.310;21.876;2023-07-13T18:36:22;32.7;82.0
22676;DHT22;12521;43.310;21.876;2023-07-13T18:40:59;32.7;82.0
22676;DHT22;12521;43.310;21.876;2023-07-13T18:45:35;32.4;82.0
22676;DHT22;12521;43.310;21.876;2023-07-13T18:50:16;32.4;82.0
22676;DHT22;12521;43.310;21.876;2023-07-13T18:55:15;32.0;82.0
22676;DHT22;12521;43.310;21.876;2023-07-13T18:59:57;32.0;82.0
22676;DHT22;12521;43.310;21.876;2023-07-13T19:04:34;32.0;82.0
22676;DHT22;12521;43.310;21.876;2023-07-13T19:09:12;31.7;83.0
22676;DHT22;12521;43.310;21.876;2023-07-13T19:13:48;31.7;83.0
22676;DHT22;12521;43.310;21.876;2023-07-13T19:18:25;31.4;83.0
22676;DHT22;12521;43.310;21.876;2023-07-13T19:23:12;31.4;83.0
22676;DHT22;12521;43.310;21.876;2023-07-13T19:28:29;31.1;84.0
22676;DHT22;12521;43.310;21.876;2023-07-13T19:33:17;31.1;84.0
22676;DHT22;12521;43.310;21.876;2023-07-13T19:37:53;30.8;85.0
22676;DHT22;12521;43.310;21.876;2023-07-13T19:42:30;30.8;85.0
22676;DHT22;12521;43.310;21.876;2023-07-13T19:47:11;30.4;86.0
22676;DHT22;12521;43.310;21.876;2023-07-13T19:51:53;30.4;86.0
22676;DHT22;12521;43.310;21.876;2023-07-13T19:56:30;29.9;86.0
22676;DHT22;12521;43.310;21.876;2023-07-13T20:01:07;29.9;86.0
22676;DHT22;12521;43.310;21.876;2023-07-13T20:05:44;29.6;87.0
22676;DHT22;12521;43.310;21.876;2023-07-13T20:10:24;29.6;87.0
22676;DHT22;12521;43.310;21.876;2023-07-13T20:15:15;29.3;88.0
22676;DHT22;12521;43.310;21.876;2023-07-13T20:20:22;29.3;88.0
22676;DHT22;12521;43.310;21.876;2023-07-13T20:25:19;29.1;88.0
22676;DHT22;12521;43.310;21.876;2023-07-13T20:30:10;29.1;88.0
22676;DHT22;12521;43.310;21.876;2023-07-13T20:34:48;28.9;89.0
22676;DHT22;12521;43.310;21.876;2023-07-13T20:39:25;28.9;89.0
22676;DHT22;12521;43.310;21.876;2023-07-13T20:44:02;28.9;89.0
22676;DHT22;12521;43.310;21.876;2023-07-13T20:48:42;28.8;89.0
22676;DHT22;12521;43.310;21.876;2023-07-13T20:53:21;28.8;89.0
22676;DHT22;12521;43.310;21.876;2023-07-13T20:57:57;28.6;90.0
22676;DHT22;12521;43.310;21.876;2023-07-13T21:02:34;28.6;90.0
22676;DHT22;12521;43.310;21.876;2023-07-13T21:07:19;28.4;91.0
22676;DHT22;12521;43.310;21.876;2023-07-13T21:11:59;28.4;91.0
22676;DHT22;12521;43.310;21.876;2023-07-13T21:16:35;28.3;91.0
22676;DHT22;12521;43.310;21.876;2023-07-13T21:21:18;28.3;91.0
22676;DHT22;12521;43.310;21.876;2023-07-13T21:26:06;28.2;92.0
22676;DHT22;12521;43.310;21.876;2023-07-13T21:30:44;28.2;92.0
22676;DHT22;12521;43.310;21.876;2023-07-13T21:35:31;28.0;92.0
22676;DHT22;12521;43.310;21.876;2023-07-13T21:40:20;28.0;92.0
22676;DHT22;12521;43.310;21.876;2023-07-13T21:45:20;27.9;93.0
22676;DHT22;12521;43.310;21.876;2023-07-13T21:50:04;27.9;93.0
22676;DHT22;12521;43.310;21.876;2023-07-13T21:54:44;27.9;93.0
22676;DHT22;12521;43.310;21.876;2023-07-13T21:59:26;27.8;93.0
22676;DHT22;12521;43.310;21.876;2023-07-13T22:04:13;27.8;93.0
22676;DHT22;12521;43.310;21.876;2023-07-13T22:08:59;27.6;94.0
22676;DHT22;12521;43.310;21.876;2023-07-13T22:13:35;27.6;94.0
22676;DHT22;12521;43.310;21.876;2023-07-13T22:18:18;27.5;94.0
22676;DHT22;12521;43.310;21.876;2023-07-13T22:22:58;27.5;94.0
22676;DHT22;12521;43.310;21.876;2023-07-13T22:27:35;27.5;95.0
22676;DHT22;12521;43.310;21.876;2023-07-13T22:32:12;27.5;95.0
22676;DHT22;12521;43.310;21.876;2023-07-13T22:36:49;27.5;95.0
22676;DHT22;12521;43.310;21.876;2023-07-13T22:41:26;27.5;95.0
22676;DHT22;12521;43.310;21.876;2023-07-13T22:46:03;27.5;96.0
22676;DHT22;12521;43.310;21.876;2023-07-13T22:50:58;27.5;96.0
22676;DHT22;12521;43.310;21.876;2023-07-13T22:55:35;27.5;96.0
22676;DHT22;12521;43.310;21.876;2023-07-13T23:00:17;27.5;96.0
22676;DHT22;12521;43.310;21.876;2023-07-13T23:04:56;27.4;96.0
22676;DHT22;12521;43.310;21.876;2023-07-13T23:09:33;27.4;96.0
22676;DHT22;12521;43.310;21.876;2023-07-13T23:14:09;27.4;96.0
22676;DHT22;12521;43.310;21.876;2023-07-13T23:18:48;27.4;96.0
22676;DHT22;12521;43.310;21.876;2023-07-13T23:23:26;27.4;96.0
22676;DHT22;12521;43.310;21.876;2023-07-13T23:28:03;27.2;96.0
22676;DHT22;12521;43.310;21.876;2023-07-13T23:32:40;27.2;96.0
22676;DHT22;12521;43.310;21.876;2023-07-13T23:37:17;27.1;96.0
22676;DHT22;12521;43.310;21.876;2023-07-13T23:41:53;27.1;96.0
22676;DHT22;12521;43.310;21.876;2023-07-13T23:46:42;26.8;96.0
22676;DHT22;12521;43.310;21.876;2023-07-13T23:51:29;26.8;96.0
22676;DHT22;12521;43.310;21.876;2023-07-13T23:56:18;26.5;96.0
